sensor_id;sensor_type;location;lat;lon;timestamp;P1;durP1;ratioP1;P2;durP2;ratioP2
65370;SDS011;58485;59.934;30.352;2022-07-22T00:00:14;6.45;;;5.93;;
65370;SDS011;58485;59.934;30.352;2022-07-22T00:01:07;9.00;;;5.80;;
65370;SDS011;58485;59.934;30.352;2022-07-22T00:01:58;7.28;;;5.90;;
65370;SDS011;58485;59.934;30.352;2022-07-22T00:02:50;6.90;;;6.00;;
65370;SDS011;58485;59.934;30.352;2022-07-22T00:03:41;8.52;;;6.22;;
65370;SDS011;58485;59.934;30.352;2022-07-22T00:04:34;6.05;;;5.55;;
65370;SDS011;58485;59.934;30.352;2022-07-22T00:05:25;5.97;;;5.57;;
65370;SDS011;58485;59.934;30.352;2022-07-22T00:06:18;6.75;;;5.68;;
65370;SDS011;58485;59.934;30.352;2022-07-22T00:07:09;6.20;;;5.70;;
65370;SDS011;58485;59.934;30.352;2022-07-22T00:08:01;6.75;;;6.15;;
65370;SDS011;58485;59.934;30.352;2022-07-22T00:08:54;6.72;;;6.13;;
65370;SDS011;58485;59.934;30.352;2022-07-22T00:09:47;6.90;;;6.40;;
65370;SDS011;58485;59.934;30.352;2022-07-22T00:10:38;6.22;;;5.82;;
65370;SDS011;58485;59.934;30.352;2022-07-22T00:11:31;6.05;;;5.65;;
65370;SDS011;58485;59.934;30.352;2022-07-22T00:12:22;8.63;;;6.03;;
65370;SDS011;58485;59.934;30.352;2022-07-22T00:13:14;6.88;;;6.22;;
65370;SDS011;58485;59.934;30.352;2022-07-22T00:14:06;5.30;;;4.90;;
65370;SDS011;58485;59.934;30.352;2022-07-22T00:14:57;6.18;;;5.78;;
65370;SDS011;58485;59.934;30.352;2022-07-22T00:15:50;6.25;;;5.65;;
65370;SDS011;58485;59.934;30.352;2022-07-22T00:16:41;5.60;;;5.20;;
65370;SDS011;58485;59.934;30.352;2022-07-22T00:17:33;5.70;;;5.30;;
65370;SDS011;58485;59.934;30.352;2022-07-22T00:18:26;6.75;;;6.15;;
65370;SDS011;58485;59.934;30.352;2022-07-22T00:19:18;6.35;;;5.72;;
65370;SDS011;58485;59.934;30.352;2022-07-22T00:20:10;6.40;;;5.78;;
65370;SDS011;58485;59.934;30.352;2022-07-22T00:21:02;6.18;;;5.68;;
65370;SDS011;58485;59.934;30.352;2022-07-22T00:21:54;5.68;;;5.28;;
65370;SDS011;58485;59.934;30.352;2022-07-22T00:22:46;6.10;;;5.53;;
65370;SDS011;58485;59.934;30.352;2022-07-22T00:23:38;9.98;;;5.60;;
65370;SDS011;58485;59.934;30.352;2022-07-22T00:24:32;7.10;;;5.78;;
65370;SDS011;58485;59.934;30.352;2022-07-22T00:25:23;6.18;;;5.70;;
65370;SDS011;58485;59.934;30.352;2022-07-22T00:26:15;5.90;;;5.40;;
65370;SDS011;58485;59.934;30.352;2022-07-22T00:27:06;5.88;;;5.38;;
65370;SDS011;58485;59.934;30.352;2022-07-22T00:27:59;5.75;;;5.32;;
65370;SDS011;58485;59.934;30.352;2022-07-22T00:28:50;6.65;;;5.28;;
65370;SDS011;58485;59.934;30.352;2022-07-22T00:29:42;6.05;;;5.55;;
65370;SDS011;58485;59.934;30.352;2022-07-22T00:30:33;6.03;;;5.63;;
65370;SDS011;58485;59.934;30.352;2022-07-22T00:31:26;5.32;;;5.03;;
65370;SDS011;58485;59.934;30.352;2022-07-22T00:32:17;6.13;;;5.22;;
65370;SDS011;58485;59.934;30.352;2022-07-22T00:33:09;5.55;;;5.15;;
65370;SDS011;58485;59.934;30.352;2022-07-22T00:34:01;6.72;;;5.28;;
65370;SDS011;58485;59.934;30.352;2022-07-22T00:34:53;5.40;;;4.90;;
65370;SDS011;58485;59.934;30.352;2022-07-22T00:35:45;6.00;;;5.18;;
65370;SDS011;58485;59.934;30.352;2022-07-22T00:36:37;5.55;;;5.15;;
65370;SDS011;58485;59.934;30.352;2022-07-22T00:37:28;5.03;;;4.55;;
65370;SDS011;58485;59.934;30.352;2022-07-22T00:38:20;5.80;;;5.30;;
65370;SDS011;58485;59.934;30.352;2022-07-22T00:39:12;5.45;;;5.05;;
65370;SDS011;58485;59.934;30.352;2022-07-22T00:40:07;5.30;;;4.90;;
65370;SDS011;58485;59.934;30.352;2022-07-22T00:41:00;5.43;;;5.03;;
65370;SDS011;58485;59.934;30.352;2022-07-22T00:41:52;5.55;;;5.05;;
65370;SDS011;58485;59.934;30.352;2022-07-22T00:42:44;5.43;;;5.03;;
65370;SDS011;58485;59.934;30.352;2022-07-22T00:43:49;5.68;;;5.20;;
65370;SDS011;58485;59.934;30.352;2022-07-22T00:44:41;5.25;;;4.88;;
65370;SDS011;58485;59.934;30.352;2022-07-22T00:45:34;6.40;;;5.80;;
65370;SDS011;58485;59.934;30.352;2022-07-22T00:46:25;5.50;;;5.10;;
65370;SDS011;58485;59.934;30.352;2022-07-22T00:47:18;5.57;;;5.10;;
65370;SDS011;58485;59.934;30.352;2022-07-22T00:48:09;5.38;;;4.93;;
65370;SDS011;58485;59.934;30.352;2022-07-22T00:49:02;5.20;;;4.80;;
65370;SDS011;58485;59.934;30.352;2022-07-22T00:49:54;4.80;;;4.50;;
65370;SDS011;58485;59.934;30.352;2022-07-22T00:50:46;5.47;;;4.88;;
65370;SDS011;58485;59.934;30.352;2022-07-22T00:51:37;6.65;;;5.57;;
65370;SDS011;58485;59.934;30.352;2022-07-22T00:52:30;5.90;;;5.30;;
65370;SDS011;58485;59.934;30.352;2022-07-22T00:53:22;5.55;;;5.15;;
65370;SDS011;58485;59.934;30.352;2022-07-22T00:54:13;5.05;;;4.65;;
65370;SDS011;58485;59.934;30.352;2022-07-22T00:55:08;5.60;;;5.20;;
65370;SDS011;58485;59.934;30.352;2022-07-22T00:56:01;5.32;;;4.85;;
65370;SDS011;58485;59.934;30.352;2022-07-22T00:56:54;5.18;;;4.78;;
65370;SDS011;58485;59.934;30.352;2022-07-22T00:57:46;5.72;;;4.95;;
65370;SDS011;58485;59.934;30.352;2022-07-22T00:58:38;5.13;;;4.72;;
65370;SDS011;58485;59.934;30.352;2022-07-22T00:59:30;4.85;;;4.55;;
65370;SDS011;58485;59.934;30.352;2022-07-22T01:00:22;4.85;;;4.55;;
65370;SDS011;58485;59.934;30.352;2022-07-22T01:01:14;6.22;;;5.40;;
65370;SDS011;58485;59.934;30.352;2022-07-22T01:02:06;4.93;;;4.63;;
65370;SDS011;58485;59.934;30.352;2022-07-22T01:02:58;5.50;;;4.95;;
65370;SDS011;58485;59.934;30.352;2022-07-22T01:03:50;5.75;;;4.30;;
65370;SDS011;58485;59.934;30.352;2022-07-22T01:04:42;7.55;;;5.28;;
65370;SDS011;58485;59.934;30.352;2022-07-22T01:05:34;5.25;;;4.72;;
65370;SDS011;58485;59.934;30.352;2022-07-22T01:06:25;5.03;;;4.72;;
65370;SDS011;58485;59.934;30.352;2022-07-22T01:07:17;5.63;;;5.22;;
65370;SDS011;58485;59.934;30.352;2022-07-22T01:08:09;5.00;;;4.60;;
65370;SDS011;58485;59.934;30.352;2022-07-22T01:09:01;5.50;;;5.10;;
65370;SDS011;58485;59.934;30.352;2022-07-22T01:09:53;7.07;;;4.65;;
65370;SDS011;58485;59.934;30.352;2022-07-22T01:10:47;5.32;;;4.90;;
65370;SDS011;58485;59.934;30.352;2022-07-22T01:11:39;5.30;;;4.88;;
65370;SDS011;58485;59.934;30.352;2022-07-22T01:12:31;5.57;;;5.07;;
65370;SDS011;58485;59.934;30.352;2022-07-22T01:13:23;5.10;;;4.65;;
65370;SDS011;58485;59.934;30.352;2022-07-22T01:14:15;5.90;;;5.40;;
65370;SDS011;58485;59.934;30.352;2022-07-22T01:15:07;5.53;;;5.13;;
65370;SDS011;58485;59.934;30.352;2022-07-22T01:16:00;4.97;;;4.68;;
65370;SDS011;58485;59.934;30.352;2022-07-22T01:16:51;4.60;;;4.20;;
65370;SDS011;58485;59.934;30.352;2022-07-22T01:17:43;4.90;;;4.60;;
65370;SDS011;58485;59.934;30.352;2022-07-22T01:18:35;5.10;;;4.70;;
65370;SDS011;58485;59.934;30.352;2022-07-22T01:19:28;4.65;;;4.35;;
65370;SDS011;58485;59.934;30.352;2022-07-22T01:20:20;5.43;;;4.18;;
65370;SDS011;58485;59.934;30.352;2022-07-22T01:21:13;5.22;;;4.93;;
65370;SDS011;58485;59.934;30.352;2022-07-22T01:22:07;4.75;;;4.38;;
65370;SDS011;58485;59.934;30.352;2022-07-22T01:23:00;4.97;;;4.57;;
65370;SDS011;58485;59.934;30.352;2022-07-22T01:23:51;4.63;;;4.22;;
65370;SDS011;58485;59.934;30.352;2022-07-22T01:24:43;5.13;;;4.72;;
65370;SDS011;58485;59.934;30.352;2022-07-22T01:25:35;5.68;;;4.72;;
65370;SDS011;58485;59.934;30.352;2022-07-22T01:26:27;4.18;;;3.88;;
65370;SDS011;58485;59.934;30.352;2022-07-22T01:27:18;5.13;;;4.63;;
65370;SDS011;58485;59.934;30.352;2022-07-22T01:28:11;4.60;;;4.30;;
65370;SDS011;58485;59.934;30.352;2022-07-22T01:29:02;5.25;;;4.85;;
65370;SDS011;58485;59.934;30.352;2022-07-22T01:29:55;4.63;;;4.30;;
65370;SDS011;58485;59.934;30.352;2022-07-22T01:30:46;4.57;;;4.25;;
65370;SDS011;58485;59.934;30.352;2022-07-22T01:31:39;5.55;;;4.28;;
65370;SDS011;58485;59.934;30.352;2022-07-22T01:32:31;4.80;;;4.50;;
65370;SDS011;58485;59.934;30.352;2022-07-22T01:33:23;4.75;;;4.45;;
65370;SDS011;58485;59.934;30.352;2022-07-22T01:34:15;5.25;;;4.70;;
65370;SDS011;58485;59.934;30.352;2022-07-22T01:35:07;6.93;;;5.03;;
65370;SDS011;58485;59.934;30.352;2022-07-22T01:36:00;4.45;;;4.15;;
65370;SDS011;58485;59.934;30.352;2022-07-22T01:36:52;4.53;;;4.13;;
65370;SDS011;58485;59.934;30.352;2022-07-22T01:37:44;4.57;;;4.18;;
65370;SDS011;58485;59.934;30.352;2022-07-22T01:38:36;4.88;;;4.47;;
65370;SDS011;58485;59.934;30.352;2022-07-22T01:39:27;4.35;;;4.05;;
65370;SDS011;58485;59.934;30.352;2022-07-22T01:40:20;7.25;;;4.63;;
65370;SDS011;58485;59.934;30.352;2022-07-22T01:41:11;4.70;;;4.30;;
65370;SDS011;58485;59.934;30.352;2022-07-22T01:42:03;6.35;;;4.43;;
65370;SDS011;58485;59.934;30.352;2022-07-22T01:42:55;4.88;;;4.28;;
65370;SDS011;58485;59.934;30.352;2022-07-22T01:43:47;4.55;;;4.25;;
65370;SDS011;58485;59.934;30.352;2022-07-22T01:44:39;5.68;;;5.07;;
65370;SDS011;58485;59.934;30.352;2022-07-22T01:45:31;4.95;;;4.55;;
65370;SDS011;58485;59.934;30.352;2022-07-22T01:46:22;6.35;;;4.78;;
65370;SDS011;58485;59.934;30.352;2022-07-22T01:47:15;4.50;;;4.20;;
65370;SDS011;58485;59.934;30.352;2022-07-22T01:48:06;6.72;;;4.38;;
65370;SDS011;58485;59.934;30.352;2022-07-22T01:48:58;4.55;;;4.15;;
65370;SDS011;58485;59.934;30.352;2022-07-22T01:49:49;6.18;;;4.43;;
65370;SDS011;58485;59.934;30.352;2022-07-22T01:50:42;4.30;;;4.00;;
65370;SDS011;58485;59.934;30.352;2022-07-22T01:51:36;4.20;;;3.90;;
65370;SDS011;58485;59.934;30.352;2022-07-22T01:52:28;4.85;;;4.30;;
65370;SDS011;58485;59.934;30.352;2022-07-22T01:53:19;9.32;;;4.28;;
65370;SDS011;58485;59.934;30.352;2022-07-22T01:54:12;4.28;;;3.97;;
65370;SDS011;58485;59.934;30.352;2022-07-22T01:55:04;4.45;;;4.15;;
65370;SDS011;58485;59.934;30.352;2022-07-22T01:55:57;4.60;;;4.30;;
65370;SDS011;58485;59.934;30.352;2022-07-22T01:56:49;4.50;;;4.20;;
65370;SDS011;58485;59.934;30.352;2022-07-22T01:57:41;4.75;;;4.35;;
65370;SDS011;58485;59.934;30.352;2022-07-22T01:58:32;4.70;;;3.63;;
65370;SDS011;58485;59.934;30.352;2022-07-22T01:59:24;4.72;;;4.32;;
65370;SDS011;58485;59.934;30.352;2022-07-22T02:00:16;4.18;;;3.88;;
65370;SDS011;58485;59.934;30.352;2022-07-22T02:01:08;6.38;;;4.40;;
65370;SDS011;58485;59.934;30.352;2022-07-22T02:02:00;4.40;;;4.10;;
65370;SDS011;58485;59.934;30.352;2022-07-22T02:02:52;4.95;;;4.40;;
65370;SDS011;58485;59.934;30.352;2022-07-22T02:03:43;4.47;;;4.18;;
65370;SDS011;58485;59.934;30.352;2022-07-22T02:04:36;3.95;;;3.75;;
65370;SDS011;58485;59.934;30.352;2022-07-22T02:05:27;4.28;;;3.97;;
65370;SDS011;58485;59.934;30.352;2022-07-22T02:06:20;4.53;;;4.22;;
65370;SDS011;58485;59.934;30.352;2022-07-22T02:07:13;4.60;;;4.22;;
65370;SDS011;58485;59.934;30.352;2022-07-22T02:08:06;10.32;;;4.38;;
65370;SDS011;58485;59.934;30.352;2022-07-22T02:08:59;4.70;;;4.30;;
65370;SDS011;58485;59.934;30.352;2022-07-22T02:09:52;4.47;;;4.07;;
65370;SDS011;58485;59.934;30.352;2022-07-22T02:10:43;4.50;;;4.10;;
65370;SDS011;58485;59.934;30.352;2022-07-22T02:11:36;4.68;;;4.15;;
65370;SDS011;58485;59.934;30.352;2022-07-22T02:12:27;5.00;;;4.10;;
65370;SDS011;58485;59.934;30.352;2022-07-22T02:13:20;4.18;;;3.85;;
65370;SDS011;58485;59.934;30.352;2022-07-22T02:14:11;4.93;;;4.32;;
65370;SDS011;58485;59.934;30.352;2022-07-22T02:15:04;4.72;;;4.32;;
65370;SDS011;58485;59.934;30.352;2022-07-22T02:15:56;5.88;;;4.90;;
65370;SDS011;58485;59.934;30.352;2022-07-22T02:16:48;5.93;;;4.18;;
65370;SDS011;58485;59.934;30.352;2022-07-22T02:17:40;4.22;;;3.92;;
65370;SDS011;58485;59.934;30.352;2022-07-22T02:18:32;4.05;;;3.85;;
65370;SDS011;58485;59.934;30.352;2022-07-22T02:19:23;4.40;;;4.10;;
65370;SDS011;58485;59.934;30.352;2022-07-22T02:20:16;4.43;;;4.13;;
65370;SDS011;58485;59.934;30.352;2022-07-22T02:21:07;4.07;;;3.78;;
65370;SDS011;58485;59.934;30.352;2022-07-22T02:21:59;4.47;;;4.18;;
65370;SDS011;58485;59.934;30.352;2022-07-22T02:22:52;3.83;;;3.53;;
65370;SDS011;58485;59.934;30.352;2022-07-22T02:23:44;5.40;;;4.47;;
65370;SDS011;58485;59.934;30.352;2022-07-22T02:24:35;4.45;;;4.05;;
65370;SDS011;58485;59.934;30.352;2022-07-22T02:25:27;4.50;;;4.20;;
65370;SDS011;58485;59.934;30.352;2022-07-22T02:26:19;4.07;;;3.78;;
65370;SDS011;58485;59.934;30.352;2022-07-22T02:27:11;4.40;;;4.10;;
65370;SDS011;58485;59.934;30.352;2022-07-22T02:28:02;4.22;;;3.92;;
65370;SDS011;58485;59.934;30.352;2022-07-22T02:28:55;4.00;;;3.70;;
65370;SDS011;58485;59.934;30.352;2022-07-22T02:29:46;4.90;;;4.03;;
65370;SDS011;58485;59.934;30.352;2022-07-22T02:30:38;4.25;;;3.95;;
65370;SDS011;58485;59.934;30.352;2022-07-22T02:31:30;5.32;;;4.03;;
65370;SDS011;58485;59.934;30.352;2022-07-22T02:32:22;4.40;;;3.90;;
65370;SDS011;58485;59.934;30.352;2022-07-22T02:33:13;4.15;;;3.85;;
65370;SDS011;58485;59.934;30.352;2022-07-22T02:34:06;4.22;;;3.92;;
65370;SDS011;58485;59.934;30.352;2022-07-22T02:34:57;4.82;;;4.25;;
65370;SDS011;58485;59.934;30.352;2022-07-22T02:35:49;4.57;;;4.28;;
65370;SDS011;58485;59.934;30.352;2022-07-22T02:36:40;4.85;;;4.03;;
65370;SDS011;58485;59.934;30.352;2022-07-22T02:37:32;4.35;;;3.97;;
65370;SDS011;58485;59.934;30.352;2022-07-22T02:38:25;4.38;;;4.07;;
65370;SDS011;58485;59.934;30.352;2022-07-22T02:39:18;4.18;;;3.88;;
65370;SDS011;58485;59.934;30.352;2022-07-22T02:40:09;4.63;;;4.20;;
65370;SDS011;58485;59.934;30.352;2022-07-22T02:41:02;4.88;;;4.40;;
65370;SDS011;58485;59.934;30.352;2022-07-22T02:41:53;4.57;;;3.95;;
65370;SDS011;58485;59.934;30.352;2022-07-22T02:42:45;5.22;;;3.70;;
65370;SDS011;58485;59.934;30.352;2022-07-22T02:43:37;6.72;;;4.07;;
65370;SDS011;58485;59.934;30.352;2022-07-22T02:44:29;4.40;;;4.10;;
65370;SDS011;58485;59.934;30.352;2022-07-22T02:45:20;5.07;;;3.90;;
65370;SDS011;58485;59.934;30.352;2022-07-22T02:46:13;4.38;;;4.10;;
65370;SDS011;58485;59.934;30.352;2022-07-22T02:47:04;3.97;;;3.67;;
65370;SDS011;58485;59.934;30.352;2022-07-22T02:47:56;4.40;;;4.00;;
65370;SDS011;58485;59.934;30.352;2022-07-22T02:48:47;6.43;;;4.30;;
65370;SDS011;58485;59.934;30.352;2022-07-22T02:49:40;4.35;;;4.05;;
65370;SDS011;58485;59.934;30.352;2022-07-22T02:50:31;4.10;;;3.55;;
65370;SDS011;58485;59.934;30.352;2022-07-22T02:51:24;11.57;;;4.30;;
65370;SDS011;58485;59.934;30.352;2022-07-22T02:52:15;11.55;;;4.20;;
65370;SDS011;58485;59.934;30.352;2022-07-22T02:53:07;13.63;;;3.95;;
65370;SDS011;58485;59.934;30.352;2022-07-22T02:53:59;5.13;;;4.10;;
65370;SDS011;58485;59.934;30.352;2022-07-22T02:54:52;14.57;;;4.63;;
65370;SDS011;58485;59.934;30.352;2022-07-22T02:55:43;6.13;;;4.47;;
65370;SDS011;58485;59.934;30.352;2022-07-22T02:56:35;4.28;;;3.97;;
65370;SDS011;58485;59.934;30.352;2022-07-22T02:57:26;4.50;;;4.20;;
65370;SDS011;58485;59.934;30.352;2022-07-22T02:58:19;5.32;;;4.15;;
65370;SDS011;58485;59.934;30.352;2022-07-22T02:59:10;4.22;;;3.92;;
65370;SDS011;58485;59.934;30.352;2022-07-22T03:00:03;4.25;;;3.95;;
65370;SDS011;58485;59.934;30.352;2022-07-22T03:00:55;4.25;;;4.05;;
65370;SDS011;58485;59.934;30.352;2022-07-22T03:01:47;6.75;;;4.10;;
65370;SDS011;58485;59.934;30.352;2022-07-22T03:02:39;6.20;;;3.75;;
65370;SDS011;58485;59.934;30.352;2022-07-22T03:03:31;9.00;;;3.83;;
65370;SDS011;58485;59.934;30.352;2022-07-22T03:04:23;5.10;;;4.50;;
65370;SDS011;58485;59.934;30.352;2022-07-22T03:05:15;4.85;;;4.30;;
65370;SDS011;58485;59.934;30.352;2022-07-22T03:06:06;5.40;;;4.72;;
65370;SDS011;58485;59.934;30.352;2022-07-22T03:06:59;4.93;;;4.15;;
65370;SDS011;58485;59.934;30.352;2022-07-22T03:07:50;4.75;;;4.35;;
65370;SDS011;58485;59.934;30.352;2022-07-22T03:08:42;4.68;;;4.28;;
65370;SDS011;58485;59.934;30.352;2022-07-22T03:09:35;4.20;;;3.90;;
65370;SDS011;58485;59.934;30.352;2022-07-22T03:10:27;6.93;;;4.60;;
65370;SDS011;58485;59.934;30.352;2022-07-22T03:11:18;4.25;;;3.85;;
65370;SDS011;58485;59.934;30.352;2022-07-22T03:12:11;4.38;;;4.07;;
65370;SDS011;58485;59.934;30.352;2022-07-22T03:13:02;3.85;;;3.55;;
65370;SDS011;58485;59.934;30.352;2022-07-22T03:13:54;4.57;;;4.10;;
65370;SDS011;58485;59.934;30.352;2022-07-22T03:14:45;4.65;;;4.35;;
65370;SDS011;58485;59.934;30.352;2022-07-22T03:15:37;4.70;;;4.30;;
65370;SDS011;58485;59.934;30.352;2022-07-22T03:16:29;4.60;;;4.20;;
65370;SDS011;58485;59.934;30.352;2022-07-22T03:17:21;4.90;;;4.40;;
65370;SDS011;58485;59.934;30.352;2022-07-22T03:18:12;4.55;;;4.15;;
65370;SDS011;58485;59.934;30.352;2022-07-22T03:19:05;4.93;;;4.10;;
65370;SDS011;58485;59.934;30.352;2022-07-22T03:19:56;4.45;;;4.15;;
65370;SDS011;58485;59.934;30.352;2022-07-22T03:20:49;5.25;;;4.00;;
65370;SDS011;58485;59.934;30.352;2022-07-22T03:21:40;4.82;;;3.92;;
65370;SDS011;58485;59.934;30.352;2022-07-22T03:22:33;4.60;;;4.20;;
65370;SDS011;58485;59.934;30.352;2022-07-22T03:23:24;4.35;;;3.95;;
65370;SDS011;58485;59.934;30.352;2022-07-22T03:24:17;4.40;;;4.00;;
65370;SDS011;58485;59.934;30.352;2022-07-22T03:25:09;7.28;;;3.85;;
65370;SDS011;58485;59.934;30.352;2022-07-22T03:26:02;4.38;;;4.03;;
65370;SDS011;58485;59.934;30.352;2022-07-22T03:26:53;4.22;;;3.92;;
65370;SDS011;58485;59.934;30.352;2022-07-22T03:27:45;6.22;;;4.35;;
65370;SDS011;58485;59.934;30.352;2022-07-22T03:28:36;6.05;;;4.70;;
65370;SDS011;58485;59.934;30.352;2022-07-22T03:29:28;7.25;;;4.30;;
65370;SDS011;58485;59.934;30.352;2022-07-22T03:30:20;4.70;;;4.25;;
65370;SDS011;58485;59.934;30.352;2022-07-22T03:31:12;4.63;;;4.22;;
65370;SDS011;58485;59.934;30.352;2022-07-22T03:32:04;8.30;;;4.70;;
65370;SDS011;58485;59.934;30.352;2022-07-22T03:32:56;7.90;;;5.07;;
65370;SDS011;58485;59.934;30.352;2022-07-22T03:33:47;7.30;;;4.30;;
65370;SDS011;58485;59.934;30.352;2022-07-22T03:34:39;5.18;;;4.68;;
65370;SDS011;58485;59.934;30.352;2022-07-22T03:35:31;4.90;;;4.50;;
65370;SDS011;58485;59.934;30.352;2022-07-22T03:36:23;5.05;;;4.60;;
65370;SDS011;58485;59.934;30.352;2022-07-22T03:37:15;9.05;;;4.25;;
65370;SDS011;58485;59.934;30.352;2022-07-22T03:38:06;5.18;;;4.07;;
65370;SDS011;58485;59.934;30.352;2022-07-22T03:38:59;6.03;;;4.22;;
65370;SDS011;58485;59.934;30.352;2022-07-22T03:39:50;8.65;;;3.90;;
65370;SDS011;58485;59.934;30.352;2022-07-22T03:40:43;6.45;;;4.38;;
65370;SDS011;58485;59.934;30.352;2022-07-22T03:41:35;4.90;;;4.18;;
65370;SDS011;58485;59.934;30.352;2022-07-22T03:42:27;5.88;;;4.60;;
65370;SDS011;58485;59.934;30.352;2022-07-22T03:43:18;4.70;;;4.32;;
65370;SDS011;58485;59.934;30.352;2022-07-22T03:44:10;4.38;;;3.97;;
65370;SDS011;58485;59.934;30.352;2022-07-22T03:45:02;4.32;;;4.03;;
65370;SDS011;58485;59.934;30.352;2022-07-22T03:45:55;9.18;;;4.85;;
65370;SDS011;58485;59.934;30.352;2022-07-22T03:46:46;4.78;;;4.38;;
65370;SDS011;58485;59.934;30.352;2022-07-22T03:47:38;13.70;;;4.63;;
65370;SDS011;58485;59.934;30.352;2022-07-22T03:48:30;5.60;;;4.07;;
65370;SDS011;58485;59.934;30.352;2022-07-22T03:49:22;5.00;;;4.43;;
65370;SDS011;58485;59.934;30.352;2022-07-22T03:50:14;5.03;;;4.38;;
65370;SDS011;58485;59.934;30.352;2022-07-22T03:51:06;7.45;;;4.35;;
65370;SDS011;58485;59.934;30.352;2022-07-22T03:51:57;4.82;;;4.28;;
65370;SDS011;58485;59.934;30.352;2022-07-22T03:52:50;4.70;;;4.30;;
65370;SDS011;58485;59.934;30.352;2022-07-22T03:53:41;4.55;;;4.15;;
65370;SDS011;58485;59.934;30.352;2022-07-22T03:54:33;6.38;;;4.22;;
65370;SDS011;58485;59.934;30.352;2022-07-22T03:55:24;5.03;;;4.53;;
65370;SDS011;58485;59.934;30.352;2022-07-22T03:56:18;4.55;;;4.15;;
65370;SDS011;58485;59.934;30.352;2022-07-22T03:57:09;8.50;;;4.75;;
65370;SDS011;58485;59.934;30.352;2022-07-22T03:58:02;4.65;;;4.20;;
65370;SDS011;58485;59.934;30.352;2022-07-22T03:58:53;9.93;;;4.10;;
65370;SDS011;58485;59.934;30.352;2022-07-22T03:59:46;7.35;;;4.38;;
65370;SDS011;58485;59.934;30.352;2022-07-22T04:00:37;4.88;;;4.38;;
65370;SDS011;58485;59.934;30.352;2022-07-22T04:01:29;14.05;;;4.78;;
65370;SDS011;58485;59.934;30.352;2022-07-22T04:02:21;5.70;;;4.30;;
65370;SDS011;58485;59.934;30.352;2022-07-22T04:03:13;4.80;;;4.40;;
65370;SDS011;58485;59.934;30.352;2022-07-22T04:04:04;6.65;;;4.45;;
65370;SDS011;58485;59.934;30.352;2022-07-22T04:04:56;4.80;;;4.15;;
65370;SDS011;58485;59.934;30.352;2022-07-22T04:05:47;4.40;;;4.00;;
65370;SDS011;58485;59.934;30.352;2022-07-22T04:06:40;4.15;;;3.85;;
65370;SDS011;58485;59.934;30.352;2022-07-22T04:07:31;7.05;;;4.25;;
65370;SDS011;58485;59.934;30.352;2022-07-22T04:08:24;4.68;;;4.22;;
65370;SDS011;58485;59.934;30.352;2022-07-22T04:09:15;3.80;;;3.50;;
65370;SDS011;58485;59.934;30.352;2022-07-22T04:10:07;4.57;;;4.18;;
65370;SDS011;58485;59.934;30.352;2022-07-22T04:10:59;5.35;;;4.85;;
65370;SDS011;58485;59.934;30.352;2022-07-22T04:11:53;4.35;;;4.05;;
65370;SDS011;58485;59.934;30.352;2022-07-22T04:12:44;4.72;;;4.22;;
65370;SDS011;58485;59.934;30.352;2022-07-22T04:13:36;4.22;;;3.83;;
65370;SDS011;58485;59.934;30.352;2022-07-22T04:14:28;5.72;;;4.40;;
65370;SDS011;58485;59.934;30.352;2022-07-22T04:15:20;6.03;;;4.75;;
65370;SDS011;58485;59.934;30.352;2022-07-22T04:16:11;4.60;;;4.18;;
65370;SDS011;58485;59.934;30.352;2022-07-22T04:17:05;5.07;;;3.92;;
65370;SDS011;58485;59.934;30.352;2022-07-22T04:17:56;4.55;;;4.15;;
65370;SDS011;58485;59.934;30.352;2022-07-22T04:18:48;4.07;;;3.78;;
65370;SDS011;58485;59.934;30.352;2022-07-22T04:19:39;3.55;;;3.35;;
65370;SDS011;58485;59.934;30.352;2022-07-22T04:20:31;4.35;;;3.95;;
65370;SDS011;58485;59.934;30.352;2022-07-22T04:21:23;5.40;;;4.32;;
65370;SDS011;58485;59.934;30.352;2022-07-22T04:22:15;4.47;;;4.05;;
65370;SDS011;58485;59.934;30.352;2022-07-22T04:23:06;4.43;;;4.13;;
65370;SDS011;58485;59.934;30.352;2022-07-22T04:23:58;4.20;;;3.80;;
65370;SDS011;58485;59.934;30.352;2022-07-22T04:24:49;4.32;;;3.90;;
65370;SDS011;58485;59.934;30.352;2022-07-22T04:25:41;4.20;;;3.80;;
65370;SDS011;58485;59.934;30.352;2022-07-22T04:26:33;4.47;;;4.07;;
65370;SDS011;58485;59.934;30.352;2022-07-22T04:27:28;3.83;;;3.45;;
65370;SDS011;58485;59.934;30.352;2022-07-22T04:28:19;4.72;;;3.80;;
65370;SDS011;58485;59.934;30.352;2022-07-22T04:29:11;3.85;;;3.55;;
65370;SDS011;58485;59.934;30.352;2022-07-22T04:30:03;4.45;;;4.15;;
65370;SDS011;58485;59.934;30.352;2022-07-22T04:30:56;3.90;;;3.60;;
65370;SDS011;58485;59.934;30.352;2022-07-22T04:31:47;4.38;;;4.07;;
65370;SDS011;58485;59.934;30.352;2022-07-22T04:32:40;4.30;;;4.00;;
65370;SDS011;58485;59.934;30.352;2022-07-22T04:33:31;4.35;;;4.05;;
65370;SDS011;58485;59.934;30.352;2022-07-22T04:34:23;4.28;;;3.97;;
65370;SDS011;58485;59.934;30.352;2022-07-22T04:35:14;4.70;;;3.92;;
65370;SDS011;58485;59.934;30.352;2022-07-22T04:36:07;4.32;;;3.88;;
65370;SDS011;58485;59.934;30.352;2022-07-22T04:36:58;4.10;;;3.80;;
65370;SDS011;58485;59.934;30.352;2022-07-22T04:37:50;3.70;;;3.50;;
65370;SDS011;58485;59.934;30.352;2022-07-22T04:38:41;4.20;;;3.80;;
65370;SDS011;58485;59.934;30.352;2022-07-22T04:39:34;4.25;;;3.85;;
65370;SDS011;58485;59.934;30.352;2022-07-22T04:40:25;3.50;;;3.28;;
65370;SDS011;58485;59.934;30.352;2022-07-22T04:41:17;4.40;;;4.00;;
65370;SDS011;58485;59.934;30.352;2022-07-22T04:42:08;3.97;;;3.67;;
65370;SDS011;58485;59.934;30.352;2022-07-22T04:43:02;4.38;;;3.90;;
65370;SDS011;58485;59.934;30.352;2022-07-22T04:43:53;4.22;;;3.92;;
65370;SDS011;58485;59.934;30.352;2022-07-22T04:44:45;4.22;;;3.88;;
65370;SDS011;58485;59.934;30.352;2022-07-22T04:45:37;3.70;;;3.33;;
65370;SDS011;58485;59.934;30.352;2022-07-22T04:46:29;4.20;;;3.88;;
65370;SDS011;58485;59.934;30.352;2022-07-22T04:47:21;3.60;;;3.30;;
65370;SDS011;58485;59.934;30.352;2022-07-22T04:48:13;4.93;;;3.65;;
65370;SDS011;58485;59.934;30.352;2022-07-22T04:49:04;4.25;;;3.95;;
65370;SDS011;58485;59.934;30.352;2022-07-22T04:49:56;3.92;;;3.63;;
65370;SDS011;58485;59.934;30.352;2022-07-22T04:50:48;4.32;;;3.88;;
65370;SDS011;58485;59.934;30.352;2022-07-22T04:51:40;4.20;;;3.90;;
65370;SDS011;58485;59.934;30.352;2022-07-22T04:52:31;3.80;;;3.60;;
65370;SDS011;58485;59.934;30.352;2022-07-22T04:53:24;4.10;;;3.80;;
65370;SDS011;58485;59.934;30.352;2022-07-22T04:54:15;4.20;;;3.70;;
65370;SDS011;58485;59.934;30.352;2022-07-22T04:55:07;4.13;;;3.83;;
65370;SDS011;58485;59.934;30.352;2022-07-22T04:55:58;3.90;;;3.60;;
65370;SDS011;58485;59.934;30.352;2022-07-22T04:56:51;3.95;;;3.67;;
65370;SDS011;58485;59.934;30.352;2022-07-22T04:57:42;4.15;;;3.72;;
65370;SDS011;58485;59.934;30.352;2022-07-22T04:58:35;3.92;;;3.63;;
65370;SDS011;58485;59.934;30.352;2022-07-22T04:59:27;4.15;;;3.78;;
65370;SDS011;58485;59.934;30.352;2022-07-22T05:00:19;4.18;;;3.88;;
65370;SDS011;58485;59.934;30.352;2022-07-22T05:01:10;4.75;;;3.92;;
65370;SDS011;58485;59.934;30.352;2022-07-22T05:02:03;10.10;;;3.80;;
65370;SDS011;58485;59.934;30.352;2022-07-22T05:02:54;4.53;;;4.18;;
65370;SDS011;58485;59.934;30.352;2022-07-22T05:03:46;4.18;;;3.83;;
65370;SDS011;58485;59.934;30.352;2022-07-22T05:04:37;4.00;;;3.70;;
65370;SDS011;58485;59.934;30.352;2022-07-22T05:05:30;4.10;;;3.80;;
65370;SDS011;58485;59.934;30.352;2022-07-22T05:06:21;3.65;;;3.35;;
65370;SDS011;58485;59.934;30.352;2022-07-22T05:07:13;4.38;;;4.07;;
65370;SDS011;58485;59.934;30.352;2022-07-22T05:08:04;3.42;;;3.22;;